Terminal Aerodrome Forecast
Issued by NWS New Orleans/Baton Rouge, LA

Home | Current Version | Previous Version | Text Only | Print | Product List | Glossary On
Versions: 1 2 3 4 5 6 7 8 9 10 11 12
000
FTUS44 KLIX 162330
TAFBTR
TAF
KBTR 162330Z 1700/1724 10005KT P6SM BKN025
     FM170900 12009KT P6SM BKN012 OVC070 PROB30 1709/1712 4SM -SHRA
      OVC008
     FM171200 14008KT 6SM SHRA BKN015 OVC070
     FM171500 12006KT 1 1/2SM SHRA BKN008 OVC100
     FM171700 17004KT 2SM SHRA BKN010 OVC110
     FM171800 19004KT P6SM BKN015 BKN090 PROB30 1718/1724 1SM SHRA
      OVC008=

USA.gov is the U.S. government's official web portal to all federal, state and local government web resources and services.